Airfield :
LOGIN :

Register | Disclaimer

   EN    FR    IT 

 










Legend :    VFR   Marginal VFR   IFR   Intensive IFR   Very Intensive IFR
Visi :
Ceiling :
>= 8 km
>= 3000ft
5 to 8 km
1000 to 3000 ft
1500m to 5 km
500 to 1000 ft
800 to 1500m
200 to 500 ft
< 800m
< 200 ft
Symbols :   Thunderstorms  Fog  Heavy snow  Heavy precipitations  Wind > 20 kt
SIGMETs :     Misc.  Thunderstorms  Icing  Turbulence  Mountain Waves  Volcanic Ashes






- Airport Elevation : 436 ft
- IATA code : ANG


LFBU - Angoulême Brie Champniers

CURRENT METAR :
  • 012130Z AUTO 17012KT 130V200 9999 -DZ NSC 14/12 Q0997

EXPIRED METARs :
  • 012100Z AUTO 17011KT CAVOK 14/12 Q0998 TEMPO 20020G40KT 3000 RA BKN006 BKN025TCU
  • 012030Z AUTO 17009KT 130V190 CAVOK 14/11 Q0999 TEMPO 20020G40KT 3000 RA BKN006 BKN025TCU
  • 012000Z AUTO 16010KT 130V190 CAVOK 14/11 Q1000 BECMG 19015G25KT
  • 011930Z AUTO 17008KT 140V200 CAVOK 14/11 Q1001 BECMG 19015G25KT
  • 011900Z AUTO 16007KT CAVOK 14/11 Q1002 BECMG 19015G25KT

TAF TAF LFBU
Valid from the 01 at 18:00 until the 02 at 18:00 UTC


011700Z 0118/0218 20010KT 9999 BKN030
BECMG 0120/0122 19015G25KT
PROB40 0122/0204 20020G40KT 3000 RA BKN006 BKN025TCU
BECMG 0204/0206 24010KT
PROB40
TEMPO 0204/0210 4000 SHRA BKN025TCU
PROB30
TEMPO 0204/0210 BKN010 BKN020CB
TEMPO 0210/0218 23015G25KT 4000 SHRA BKN010 BKN030TCU



MET'MAP, your aeronautical weather chart ! - Copyright ORBIFLY December 2007 - Disclaimer

ORBIFLY MET'MAP TEAM :

Programming & Development : Alexandra Zaïnal
Concept & original design : Baudouin d'Aumeries
Assistance for programming : Marc-Olivier Méhu
Technical & hardware support : Manuel Goepfert

Contact : metmap@orbifly.com




SOURCES & CREDITS :

   NOAA